createdAt,value
2017-09-14T00:00:04.757Z,0
2017-09-14T00:01:04.313Z,0
2017-09-14T00:02:04.313Z,0
2017-09-14T00:03:04.253Z,0
2017-09-14T00:04:03.925Z,0
2017-09-14T00:05:04.586Z,0
2017-09-14T00:06:03.886Z,0
2017-09-14T00:07:03.872Z,0
2017-09-14T00:08:04.484Z,0
2017-09-14T00:09:04.191Z,0
2017-09-14T00:10:04.445Z,0
2017-09-14T00:11:03.855Z,0
2017-09-14T00:12:04.092Z,0
2017-09-14T00:13:04.446Z,0
2017-09-14T00:14:04.382Z,0
2017-09-14T00:15:04.405Z,0
2017-09-14T00:16:04.326Z,0
2017-09-14T00:17:03.736Z,0
2017-09-14T00:18:04.352Z,0
2017-09-14T00:19:03.967Z,0
2017-09-14T00:20:03.943Z,0
2017-09-14T00:21:03.606Z,0
2017-09-14T00:22:04.212Z,0
2017-09-14T00:23:03.574Z,0
2017-09-14T00:24:03.583Z,0
2017-09-14T00:25:04.152Z,0
2017-09-14T00:26:03.816Z,0
2017-09-14T00:27:04.270Z,0
2017-09-14T00:28:03.841Z,0
2017-09-14T00:29:03.809Z,0
2017-09-14T00:30:03.434Z,0
2017-09-14T00:31:03.739Z,0
2017-09-14T00:32:03.074Z,0
2017-09-14T00:33:03.413Z,0
2017-09-14T00:34:04.011Z,0
2017-09-14T00:35:04.008Z,0
2017-09-14T00:36:03.624Z,0
2017-09-14T00:37:03.307Z,0
2017-09-14T00:38:04.152Z,0
2017-09-14T00:39:03.563Z,0
2017-09-14T00:40:03.597Z,0
2017-09-14T00:41:03.245Z,0
2017-09-14T00:42:03.522Z,0
2017-09-14T00:43:03.498Z,0
2017-09-14T00:44:03.485Z,0
2017-09-14T00:45:03.809Z,0
2017-09-14T00:46:03.429Z,0
2017-09-14T00:47:03.131Z,0
2017-09-14T00:48:03.449Z,0
2017-09-14T00:49:03.761Z,0
2017-09-14T00:50:03.472Z,0
2017-09-14T00:51:03.362Z,0
2017-09-14T00:52:03.152Z,0
2017-09-14T00:53:03.308Z,0
2017-09-14T00:54:03.345Z,0
2017-09-14T00:55:03.624Z,0
2017-09-14T00:56:03.253Z,0
2017-09-14T00:57:02.597Z,0
2017-09-14T00:58:03.563Z,0
2017-09-14T00:59:02.889Z,0
2017-09-14T01:00:03.480Z,0
2017-09-14T01:01:03.483Z,0
2017-09-14T01:02:02.876Z,0
2017-09-14T01:03:03.111Z,0
2017-09-14T01:04:02.469Z,0
2017-09-14T01:05:03.413Z,0
2017-09-14T01:06:03.383Z,0
2017-09-14T01:07:02.728Z,0
2017-09-14T01:08:03.380Z,0
2017-09-14T01:09:03.000Z,0
2017-09-14T01:10:02.717Z,0
2017-09-14T01:11:02.966Z,0
2017-09-14T01:12:02.638Z,0
2017-09-14T01:13:03.222Z,0
2017-09-14T01:14:02.599Z,0
2017-09-14T01:15:02.598Z,0
2017-09-14T01:16:02.868Z,0
2017-09-14T01:17:02.540Z,0
2017-09-14T01:18:03.208Z,0
2017-09-14T01:19:03.139Z,0
2017-09-14T01:20:03.087Z,0
2017-09-14T01:21:02.469Z,0
2017-09-14T01:22:02.745Z,0
2017-09-14T01:23:02.528Z,0
2017-09-14T01:24:02.709Z,0
2017-09-14T01:25:02.477Z,0
2017-09-14T01:26:02.772Z,0
2017-09-14T01:27:03.003Z,0
2017-09-14T01:28:02.639Z,0
2017-09-14T01:29:02.399Z,0
2017-09-14T01:30:02.586Z,0
2017-09-14T01:31:02.299Z,0
2017-09-14T01:32:02.558Z,0
2017-09-14T01:33:02.538Z,0
2017-09-14T01:34:02.539Z,0
2017-09-14T01:35:02.823Z,0
2017-09-14T01:36:02.190Z,0
2017-09-14T01:37:02.800Z,0
2017-09-14T01:38:02.474Z,0
2017-09-14T01:39:02.131Z,0
2017-09-14T01:40:02.821Z,0
2017-09-14T01:41:02.418Z,0
2017-09-14T01:42:02.384Z,0
2017-09-14T01:43:02.036Z,0
2017-09-14T01:44:02.337Z,0
2017-09-14T01:45:02.351Z,0
2017-09-14T01:46:02.606Z,0
2017-09-14T01:47:02.694Z,0
2017-09-14T01:48:02.655Z,0
2017-09-14T01:49:02.289Z,0
2017-09-14T01:50:02.525Z,0
2017-09-14T01:51:02.530Z,0
2017-09-14T01:52:02.200Z,0
2017-09-14T01:53:02.563Z,0
2017-09-14T01:54:02.128Z,0
2017-09-14T01:55:02.559Z,0
2017-09-14T01:56:01.809Z,0
2017-09-14T01:57:01.778Z,0
2017-09-14T01:58:02.479Z,0
2017-09-14T01:59:02.363Z,0
2017-09-14T02:00:02.334Z,0
2017-09-14T02:01:02.020Z,0
2017-09-14T02:02:02.298Z,0
2017-09-14T02:03:02.289Z,0
2017-09-14T02:04:02.259Z,0
2017-09-14T02:05:01.950Z,0
2017-09-14T02:06:01.966Z,0
2017-09-14T02:07:01.874Z,0
2017-09-14T02:08:01.870Z,0
2017-09-14T02:09:01.910Z,0
2017-09-14T02:10:02.159Z,0
2017-09-14T02:11:02.239Z,0
2017-09-14T02:12:01.799Z,0
2017-09-14T02:13:01.829Z,0
2017-09-14T02:14:01.770Z,0
2017-09-14T02:15:01.749Z,0
2017-09-14T02:16:02.029Z,0
2017-09-14T02:17:01.690Z,0
2017-09-14T02:18:01.067Z,0
2017-09-14T02:19:02.037Z,0
2017-09-14T02:20:01.710Z,0
2017-09-14T02:21:01.927Z,0
2017-09-14T02:22:01.919Z,0
2017-09-14T02:23:01.897Z,0
2017-09-14T02:24:01.571Z,0
2017-09-14T02:25:01.239Z,0
2017-09-14T02:26:01.820Z,0
2017-09-14T02:27:01.509Z,0
2017-09-14T02:28:00.871Z,0
2017-09-14T02:29:01.489Z,0
2017-09-14T02:30:00.841Z,0
2017-09-14T02:31:01.130Z,0
2017-09-14T02:32:00.798Z,0
2017-09-14T02:33:01.388Z,0
2017-09-14T02:34:01.669Z,0
2017-09-14T02:35:01.070Z,0
2017-09-14T02:36:01.029Z,0
2017-09-14T02:37:01.000Z,0
2017-09-14T02:38:00.987Z,0
2017-09-14T02:39:01.601Z,0
2017-09-14T02:40:01.256Z,0
2017-09-14T02:41:01.549Z,0
2017-09-14T02:42:00.908Z,0
2017-09-14T02:43:00.571Z,0
2017-09-14T02:44:01.549Z,0
2017-09-14T02:45:01.183Z,0
2017-09-14T02:46:00.831Z,0
2017-09-14T02:47:01.139Z,0
2017-09-14T02:48:01.110Z,0
2017-09-14T02:49:00.892Z,0
2017-09-14T02:50:01.399Z,0
2017-09-14T02:51:01.051Z,0
2017-09-14T02:52:01.034Z,0
2017-09-14T02:53:01.012Z,0
2017-09-14T02:54:01.302Z,0
2017-09-14T02:55:01.289Z,0
2017-09-14T02:56:01.270Z,0
2017-09-14T02:57:01.320Z,0
2017-09-14T02:58:00.914Z,0
2017-09-14T02:59:00.888Z,0
2017-09-14T03:00:00.899Z,0
2017-09-14T03:01:00.935Z,0
2017-09-14T03:02:00.851Z,0
2017-09-14T03:03:01.272Z,0
2017-09-14T03:04:00.798Z,0
2017-09-14T03:05:00.761Z,0
2017-09-14T03:06:00.448Z,0
2017-09-14T03:07:00.741Z,0
2017-09-14T03:08:00.521Z,0
2017-09-14T03:09:01.008Z,0
2017-09-14T03:10:00.369Z,0
2017-09-14T03:11:01.072Z,0
2017-09-14T03:12:00.332Z,0
2017-09-14T03:13:00.629Z,0
2017-09-14T03:14:00.597Z,0
2017-09-14T03:15:00.267Z,0
2017-09-14T03:15:59.946Z,0
2017-09-14T03:17:00.252Z,0
2017-09-14T03:18:00.223Z,0
2017-09-14T03:19:00.919Z,0
2017-09-14T03:20:00.216Z,0
2017-09-14T03:20:59.855Z,0
2017-09-14T03:22:00.439Z,0
2017-09-14T03:23:00.111Z,0
2017-09-14T03:24:00.428Z,0
2017-09-14T03:25:00.431Z,0
2017-09-14T03:26:00.050Z,0
2017-09-14T03:27:00.349Z,0
2017-09-14T03:28:00.336Z,0
2017-09-14T03:29:00.336Z,0
2017-09-14T03:30:00.602Z,0
2017-09-14T03:30:59.956Z,0
2017-09-14T03:31:59.944Z,0
2017-09-14T03:33:00.301Z,0
2017-09-14T03:34:00.224Z,0
2017-09-14T03:35:00.589Z,0
2017-09-14T03:36:00.163Z,0
2017-09-14T03:37:00.148Z,0
2017-09-14T03:38:00.123Z,0
2017-09-14T03:39:00.112Z,0
2017-09-14T03:40:00.100Z,0
2017-09-14T03:40:59.809Z,0
2017-09-14T03:42:00.382Z,0
2017-09-14T03:42:59.729Z,0
2017-09-14T03:44:00.363Z,0
2017-09-14T03:44:59.694Z,0
2017-09-14T03:45:59.982Z,0
2017-09-14T03:47:00.261Z,0
2017-09-14T03:48:00.502Z,0
2017-09-14T03:48:59.604Z,0
2017-09-14T03:50:00.327Z,0
2017-09-14T03:51:00.244Z,0
2017-09-14T03:52:00.160Z,0
2017-09-14T03:52:59.943Z,0
2017-09-14T03:54:00.256Z,0
2017-09-14T03:55:00.170Z,0
2017-09-14T03:55:59.848Z,0
2017-09-14T03:56:59.810Z,0
2017-09-14T03:58:00.122Z,0
2017-09-14T03:59:00.063Z,0
2017-09-14T04:00:00.036Z,0
2017-09-14T04:01:00.002Z,0
2017-09-14T04:01:59.978Z,0
2017-09-14T04:02:59.971Z,0
2017-09-14T04:03:59.650Z,0
2017-09-14T04:04:59.613Z,0
2017-09-14T04:05:59.592Z,0
2017-09-14T04:06:59.582Z,0
2017-09-14T04:07:59.569Z,0
2017-09-14T04:08:59.550Z,0
2017-09-14T04:09:59.845Z,0
2017-09-14T04:10:59.188Z,0
2017-09-14T04:11:59.553Z,0
2017-09-14T04:12:59.869Z,0
2017-09-14T04:13:59.439Z,0
2017-09-14T04:14:59.729Z,0
2017-09-14T04:15:59.098Z,0
2017-09-14T04:16:59.402Z,0
2017-09-14T04:17:59.361Z,0
2017-09-14T04:18:59.461Z,0
2017-09-14T04:19:59.639Z,0
2017-09-14T04:20:59.303Z,0
2017-09-14T04:21:58.656Z,0
2017-09-14T04:22:59.619Z,0
2017-09-14T04:23:59.566Z,0
2017-09-14T04:24:59.215Z,0
2017-09-14T04:25:59.531Z,0
2017-09-14T04:26:59.500Z,0
2017-09-14T04:27:58.538Z,0
2017-09-14T04:28:58.852Z,0
2017-09-14T04:29:59.435Z,0
2017-09-14T04:30:58.795Z,0
2017-09-14T04:31:59.461Z,0
2017-09-14T04:32:59.441Z,0
2017-09-14T04:33:58.730Z,0
2017-09-14T04:34:59.021Z,0
2017-09-14T04:35:58.730Z,0
2017-09-14T04:36:58.999Z,0
2017-09-14T04:37:58.670Z,0
2017-09-14T04:38:58.969Z,0
2017-09-14T04:39:58.606Z,0
2017-09-14T04:40:58.920Z,0
2017-09-14T04:41:58.607Z,0
2017-09-14T04:42:59.000Z,0
2017-09-14T04:43:58.859Z,0
2017-09-14T04:44:59.211Z,0
2017-09-14T04:45:59.160Z,0
2017-09-14T04:46:58.800Z,0
2017-09-14T04:47:59.181Z,0
2017-09-14T04:48:58.761Z,0
2017-09-14T04:49:58.729Z,0
2017-09-14T04:50:59.169Z,0
2017-09-14T04:51:58.407Z,0
2017-09-14T04:52:59.050Z,0
2017-09-14T04:53:58.353Z,0
2017-09-14T04:54:58.959Z,0
2017-09-14T04:55:58.640Z,0
2017-09-14T04:56:58.355Z,0
2017-09-14T04:57:58.285Z,0
2017-09-14T04:58:58.959Z,0
2017-09-14T04:59:58.859Z,0
2017-09-14T05:00:58.981Z,0
2017-09-14T05:01:58.862Z,0
2017-09-14T05:02:58.539Z,0
2017-09-14T05:03:58.162Z,0
2017-09-14T05:04:58.761Z,0
2017-09-14T05:05:58.451Z,5
2017-09-14T05:06:58.499Z,5
2017-09-14T05:07:58.387Z,5
2017-09-14T05:08:58.377Z,5
2017-09-14T05:09:58.060Z,5
2017-09-14T05:10:58.696Z,5
2017-09-14T05:11:57.683Z,5
2017-09-14T05:12:57.989Z,5
2017-09-14T05:13:57.989Z,5
2017-09-14T05:14:58.299Z,5
2017-09-14T05:15:58.242Z,5
2017-09-14T05:16:57.699Z,5
2017-09-14T05:17:57.961Z,5
2017-09-14T05:18:57.868Z,5
2017-09-14T05:19:58.207Z,5
2017-09-14T05:20:58.138Z,5
2017-09-14T05:21:57.821Z,5
2017-09-14T05:22:57.788Z,10
2017-09-14T05:23:58.395Z,10
2017-09-14T05:24:57.434Z,10
2017-09-14T05:25:58.371Z,10
2017-09-14T05:26:58.078Z,15
2017-09-14T05:27:57.711Z,15
2017-09-14T05:28:57.978Z,15
2017-09-14T05:29:57.649Z,15
2017-09-14T05:30:58.013Z,15
2017-09-14T05:31:57.925Z,20
2017-09-14T05:32:58.238Z,20
2017-09-14T05:33:57.885Z,25
2017-09-14T05:34:57.566Z,25
2017-09-14T05:35:57.537Z,30
2017-09-14T05:36:57.884Z,30
2017-09-14T05:37:57.492Z,40
2017-09-14T05:38:57.779Z,45
2017-09-14T05:39:57.769Z,40
2017-09-14T05:40:57.542Z,40
2017-09-14T05:41:57.404Z,35
2017-09-14T05:42:57.724Z,40
2017-09-14T05:43:57.400Z,40
2017-09-14T05:44:57.730Z,45
2017-09-14T05:45:57.734Z,45
2017-09-14T05:46:57.628Z,40
2017-09-14T05:47:57.314Z,35
2017-09-14T05:48:57.601Z,40
2017-09-14T05:49:57.591Z,40
2017-09-14T05:50:57.604Z,40
2017-09-14T05:51:57.550Z,35
2017-09-14T05:52:57.210Z,35
2017-09-14T05:53:57.821Z,35
2017-09-14T05:54:57.507Z,35
2017-09-14T05:55:57.462Z,30
2017-09-14T05:56:57.766Z,30
2017-09-14T05:57:57.683Z,30
2017-09-14T05:58:57.721Z,30
2017-09-14T05:59:57.718Z,30
2017-09-14T06:00:57.680Z,30
2017-09-14T06:01:57.720Z,25
2017-09-14T06:02:57.719Z,25
2017-09-14T06:03:57.320Z,25
2017-09-14T06:04:57.708Z,20
2017-09-14T06:05:57.672Z,20
2017-09-14T06:06:57.569Z,15
2017-09-14T06:07:57.219Z,15
2017-09-14T06:08:57.539Z,10
2017-09-14T06:09:57.179Z,10
2017-09-14T06:10:56.989Z,10
2017-09-14T06:11:57.533Z,10
2017-09-14T06:12:56.840Z,10
2017-09-14T06:13:57.434Z,15
2017-09-14T06:14:56.798Z,15
2017-09-14T06:15:57.091Z,15
2017-09-14T06:16:57.069Z,20
2017-09-14T06:17:57.359Z,25
2017-09-14T06:18:57.372Z,25
2017-09-14T06:19:56.989Z,30
2017-09-14T06:20:57.352Z,30
2017-09-14T06:21:56.970Z,30
2017-09-14T06:22:56.961Z,35
2017-09-14T06:23:57.271Z,30
2017-09-14T06:24:56.607Z,35
2017-09-14T06:25:57.208Z,35
2017-09-14T06:26:56.621Z,40
2017-09-14T06:27:56.565Z,40
2017-09-14T06:28:56.847Z,45
2017-09-14T06:29:57.162Z,60
2017-09-14T06:30:57.118Z,70
2017-09-14T06:31:56.456Z,75
2017-09-14T06:32:56.463Z,75
2017-09-14T06:33:56.750Z,75
2017-09-14T06:34:56.741Z,55
2017-09-14T06:35:57.199Z,40
2017-09-14T06:36:56.370Z,40
2017-09-14T06:37:56.980Z,35
2017-09-14T06:38:56.651Z,30
2017-09-14T06:39:56.651Z,30
2017-09-14T06:40:56.622Z,35
2017-09-14T06:41:56.275Z,35
2017-09-14T06:42:56.597Z,40
2017-09-14T06:43:56.241Z,40
2017-09-14T06:44:56.871Z,50
2017-09-14T06:45:56.518Z,60
2017-09-14T06:46:56.251Z,65
2017-09-14T06:47:56.476Z,75
2017-09-14T06:48:56.459Z,80
2017-09-14T06:49:56.758Z,65
2017-09-14T06:50:56.727Z,60
2017-09-14T06:51:56.398Z,55
2017-09-14T06:52:56.406Z,55
2017-09-14T06:53:56.041Z,50
2017-09-14T06:54:56.336Z,45
2017-09-14T06:55:56.628Z,40
2017-09-14T06:56:56.629Z,40
2017-09-14T06:57:55.970Z,40
2017-09-14T06:58:56.292Z,40
2017-09-14T06:59:56.278Z,35
2017-09-14T07:00:56.249Z,30
2017-09-14T07:01:56.218Z,30
2017-09-14T07:02:56.499Z,30
2017-09-14T07:03:56.499Z,30
2017-09-14T07:04:55.833Z,35
2017-09-14T07:05:56.457Z,35
2017-09-14T07:06:56.444Z,35
2017-09-14T07:07:56.122Z,35
2017-09-14T07:08:56.447Z,35
2017-09-14T07:09:56.398Z,40
2017-09-14T07:10:56.351Z,50
2017-09-14T07:11:56.041Z,55
2017-09-14T07:12:56.408Z,60
2017-09-14T07:13:56.311Z,60
2017-09-14T07:14:55.671Z,60
2017-09-14T07:15:55.660Z,55
2017-09-14T07:16:55.936Z,70
2017-09-14T07:17:55.899Z,75
2017-09-14T07:18:55.880Z,65
2017-09-14T07:19:56.190Z,70
2017-09-14T07:20:56.160Z,50
2017-09-14T07:21:55.518Z,35
2017-09-14T07:22:56.183Z,30
2017-09-14T07:23:56.121Z,25
2017-09-14T07:24:55.830Z,25
2017-09-14T07:25:55.835Z,20
2017-09-14T07:26:56.060Z,20
2017-09-14T07:27:55.525Z,20
2017-09-14T07:28:55.761Z,25
2017-09-14T07:29:55.404Z,25
2017-09-14T07:30:55.999Z,30
2017-09-14T07:31:55.644Z,30
2017-09-14T07:32:55.939Z,30
2017-09-14T07:33:55.970Z,30
2017-09-14T07:34:55.278Z,25
2017-09-14T07:35:55.300Z,25
2017-09-14T07:36:55.560Z,20
2017-09-14T07:37:55.225Z,20
2017-09-14T07:38:55.577Z,20
2017-09-14T07:39:55.499Z,15
2017-09-14T07:40:55.471Z,15
2017-09-14T07:41:55.487Z,10
2017-09-14T07:42:55.517Z,15
2017-09-14T07:43:55.729Z,10
2017-09-14T07:44:55.719Z,10
2017-09-14T07:45:55.702Z,10
2017-09-14T07:46:54.779Z,10
2017-09-14T07:47:55.329Z,15
2017-09-14T07:48:55.319Z,15
2017-09-14T07:49:55.378Z,15
2017-09-14T07:50:54.978Z,20
2017-09-14T07:51:54.640Z,20
2017-09-14T07:52:55.557Z,20
2017-09-14T07:53:55.247Z,25
2017-09-14T07:54:55.224Z,25
2017-09-14T07:55:55.186Z,25
2017-09-14T07:56:55.179Z,30
2017-09-14T07:57:55.151Z,30
2017-09-14T07:58:55.451Z,35
2017-09-14T07:59:55.432Z,35
2017-09-14T08:00:55.458Z,35
2017-09-14T08:01:54.769Z,30
2017-09-14T08:02:55.057Z,30
2017-09-14T08:03:55.051Z,30
2017-09-14T08:04:55.372Z,30
2017-09-14T08:05:54.689Z,30
2017-09-14T08:06:55.293Z,30
2017-09-14T08:07:55.288Z,30
2017-09-14T08:08:55.281Z,30
2017-09-14T08:09:55.231Z,30
2017-09-14T08:10:55.232Z,30
2017-09-14T08:11:55.241Z,35
2017-09-14T08:12:55.192Z,35
2017-09-14T08:13:55.192Z,40
2017-09-14T08:14:55.250Z,45
2017-09-14T08:15:55.159Z,50
2017-09-14T08:16:55.201Z,50
2017-09-14T08:17:55.097Z,50
2017-09-14T08:18:54.771Z,50
2017-09-14T08:19:54.740Z,50
2017-09-14T08:20:54.700Z,45
2017-09-14T08:21:55.067Z,45
2017-09-14T08:22:54.993Z,40
2017-09-14T08:23:54.978Z,45
2017-09-14T08:24:54.641Z,45
2017-09-14T08:25:54.919Z,50
2017-09-14T08:26:54.604Z,55
2017-09-14T08:27:54.279Z,60
2017-09-14T08:28:54.901Z,70
2017-09-14T08:29:54.915Z,75
2017-09-14T08:30:54.521Z,95
2017-09-14T08:31:54.509Z,115
2017-09-14T08:32:54.807Z,145
2017-09-14T08:33:54.772Z,175
2017-09-14T08:34:54.801Z,190
2017-09-14T08:35:54.130Z,190
2017-09-14T08:36:54.720Z,200
2017-09-14T08:37:54.413Z,270
2017-09-14T08:38:54.701Z,205
2017-09-14T08:39:53.723Z,145
2017-09-14T08:40:54.329Z,120
2017-09-14T08:41:54.626Z,95
2017-09-14T08:42:54.306Z,80
2017-09-14T08:43:53.969Z,70
2017-09-14T08:44:54.571Z,60
2017-09-14T08:45:54.221Z,50
2017-09-14T08:46:54.221Z,45
2017-09-14T08:47:54.199Z,40
2017-09-14T08:48:54.165Z,40
2017-09-14T08:49:53.877Z,35
2017-09-14T08:50:54.141Z,30
2017-09-14T08:51:53.579Z,30
2017-09-14T08:52:54.419Z,25
2017-09-14T08:53:54.072Z,25
2017-09-14T08:54:54.080Z,20
2017-09-14T08:55:53.180Z,20
2017-09-14T08:56:54.358Z,20
2017-09-14T08:57:54.000Z,20
2017-09-14T08:58:54.310Z,20
2017-09-14T08:59:53.653Z,25
2017-09-14T09:00:53.960Z,30
2017-09-14T09:01:54.262Z,30
2017-09-14T09:02:53.910Z,35
2017-09-14T09:03:53.881Z,40
2017-09-14T09:04:54.190Z,40
2017-09-14T09:05:53.859Z,40
2017-09-14T09:06:53.509Z,40
2017-09-14T09:07:54.129Z,35
2017-09-14T09:08:53.841Z,35
2017-09-14T09:09:54.107Z,30
2017-09-14T09:10:53.783Z,30
2017-09-14T09:11:54.067Z,30
2017-09-14T09:12:53.727Z,30
2017-09-14T09:13:54.031Z,30
2017-09-14T09:14:53.689Z,30
2017-09-14T09:15:53.670Z,25
2017-09-14T09:16:53.488Z,25
2017-09-14T09:17:54.011Z,25
2017-09-14T09:18:53.621Z,25
2017-09-14T09:19:53.903Z,25
2017-09-14T09:20:53.259Z,25
2017-09-14T09:21:53.880Z,25
2017-09-14T09:22:53.826Z,30
2017-09-14T09:23:53.189Z,30
2017-09-14T09:24:53.240Z,30
2017-09-14T09:25:53.449Z,30
2017-09-14T09:26:53.822Z,30
2017-09-14T09:27:53.730Z,35
2017-09-14T09:28:53.402Z,40
2017-09-14T09:29:53.378Z,50
2017-09-14T09:30:53.377Z,65
2017-09-14T09:31:53.352Z,80
2017-09-14T09:32:52.703Z,90
2017-09-14T09:33:53.309Z,105
2017-09-14T09:34:53.278Z,115
2017-09-14T09:35:53.270Z,120
2017-09-14T09:36:53.603Z,125
2017-09-14T09:37:53.529Z,120
2017-09-14T09:38:53.210Z,120
2017-09-14T09:39:52.891Z,120
2017-09-14T09:40:53.574Z,115
2017-09-14T09:41:52.533Z,110
2017-09-14T09:42:52.834Z,105
2017-09-14T09:43:53.120Z,95
2017-09-14T09:44:53.120Z,95
2017-09-14T09:45:52.448Z,95
2017-09-14T09:46:52.751Z,105
2017-09-14T09:47:52.740Z,125
2017-09-14T09:48:53.068Z,160
2017-09-14T09:49:52.703Z,210
2017-09-14T09:50:52.981Z,325
2017-09-14T09:51:52.980Z,420
2017-09-14T09:52:52.642Z,910
2017-09-14T09:53:52.935Z,520
2017-09-14T09:54:52.603Z,280
2017-09-14T09:55:52.890Z,935
2017-09-14T09:56:53.201Z,545
2017-09-14T09:57:52.223Z,315
2017-09-14T09:58:52.852Z,310
2017-09-14T09:59:53.131Z,430
2017-09-14T10:00:52.476Z,340
2017-09-14T10:01:52.792Z,370
2017-09-14T10:02:52.794Z,310
2017-09-14T10:03:52.752Z,400
2017-09-14T10:04:52.734Z,420
2017-09-14T10:05:53.067Z,265
2017-09-14T10:06:52.737Z,245
2017-09-14T10:07:52.714Z,470
2017-09-14T10:08:52.985Z,450
2017-09-14T10:09:52.093Z,405
2017-09-14T10:10:52.954Z,1020
2017-09-14T10:11:52.939Z,495
2017-09-14T10:12:52.972Z,980
2017-09-14T10:13:52.930Z,1135
2017-09-14T10:14:52.268Z,1020
2017-09-14T10:15:52.871Z,1005
2017-09-14T10:16:52.852Z,990
2017-09-14T10:17:52.226Z,920
2017-09-14T10:18:52.823Z,945
2017-09-14T10:19:52.518Z,960
2017-09-14T10:20:52.459Z,995
2017-09-14T10:21:52.764Z,980
2017-09-14T10:22:52.754Z,805
2017-09-14T10:23:52.757Z,605
2017-09-14T10:24:52.141Z,390
2017-09-14T10:25:52.472Z,340
2017-09-14T10:26:52.373Z,345
2017-09-14T10:27:52.686Z,345
2017-09-14T10:28:52.365Z,360
2017-09-14T10:29:52.674Z,335
2017-09-14T10:30:52.311Z,315
2017-09-14T10:31:52.617Z,315
2017-09-14T10:32:52.272Z,325
2017-09-14T10:33:52.292Z,320
2017-09-14T10:34:51.633Z,325
2017-09-14T10:35:52.372Z,335
2017-09-14T10:36:52.272Z,335
2017-09-14T10:37:52.223Z,350
2017-09-14T10:38:52.509Z,375
2017-09-14T10:39:51.990Z,380
2017-09-14T10:40:51.861Z,395
2017-09-14T10:41:52.160Z,305
2017-09-14T10:42:52.470Z,300
2017-09-14T10:43:52.461Z,375
2017-09-14T10:44:52.131Z,395
2017-09-14T10:45:52.430Z,415
2017-09-14T10:46:52.131Z,375
2017-09-14T10:47:52.411Z,395
2017-09-14T10:48:52.388Z,380
2017-09-14T10:49:52.361Z,365
2017-09-14T10:50:52.362Z,360
2017-09-14T10:51:52.331Z,345
2017-09-14T10:52:52.343Z,335
2017-09-14T10:53:52.315Z,335
2017-09-14T10:54:52.060Z,345
2017-09-14T10:55:52.302Z,370
2017-09-14T10:56:51.979Z,205
2017-09-14T10:57:52.283Z,320
2017-09-14T10:58:52.007Z,175
2017-09-14T10:59:52.351Z,280
2017-09-14T11:00:52.235Z,325
2017-09-14T11:01:52.210Z,295
2017-09-14T11:02:52.201Z,300
2017-09-14T11:03:51.883Z,315
2017-09-14T11:04:52.269Z,265
2017-09-14T11:05:52.220Z,200
2017-09-14T11:06:52.309Z,370
2017-09-14T11:07:52.203Z,350
2017-09-14T11:08:51.876Z,255
2017-09-14T11:09:51.458Z,200
2017-09-14T11:10:51.770Z,200
2017-09-14T11:11:52.002Z,220
2017-09-14T11:12:51.737Z,260
2017-09-14T11:13:51.740Z,310
2017-09-14T11:14:51.707Z,185
2017-09-14T11:15:51.732Z,180
2017-09-14T11:16:52.091Z,205
2017-09-14T11:17:51.695Z,220
2017-09-14T11:18:51.352Z,250
2017-09-14T11:19:51.331Z,340
2017-09-14T11:20:51.005Z,365
2017-09-14T11:21:51.282Z,340
2017-09-14T11:22:51.600Z,340
2017-09-14T11:23:51.289Z,225
2017-09-14T11:24:51.563Z,335
2017-09-14T11:25:51.532Z,325
2017-09-14T11:26:51.229Z,325
2017-09-14T11:27:51.552Z,210
2017-09-14T11:28:51.842Z,230
2017-09-14T11:29:51.810Z,220
2017-09-14T11:30:51.794Z,340
2017-09-14T11:31:51.789Z,220
2017-09-14T11:32:51.822Z,175
2017-09-14T11:33:51.721Z,135
2017-09-14T11:34:51.760Z,135
2017-09-14T11:35:51.718Z,160
2017-09-14T11:36:51.394Z,155
2017-09-14T11:37:51.702Z,115
2017-09-14T11:38:51.699Z,115
2017-09-14T11:39:51.350Z,145
2017-09-14T11:40:51.765Z,190
2017-09-14T11:41:51.331Z,190
2017-09-14T11:42:51.711Z,170
2017-09-14T11:43:51.601Z,185
2017-09-14T11:44:51.603Z,350
2017-09-14T11:45:51.271Z,225
2017-09-14T11:46:51.229Z,220
2017-09-14T11:47:51.191Z,225
2017-09-14T11:48:51.301Z,240
2017-09-14T11:49:51.190Z,230
2017-09-14T11:50:51.522Z,205
2017-09-14T11:51:50.888Z,185
2017-09-14T11:52:51.143Z,180
2017-09-14T11:53:51.433Z,175
2017-09-14T11:54:51.112Z,195
2017-09-14T11:55:50.777Z,205
2017-09-14T11:56:51.434Z,155
2017-09-14T11:57:51.072Z,130
2017-09-14T11:58:50.736Z,125
2017-09-14T11:59:51.044Z,105
2017-09-14T12:00:51.020Z,95
2017-09-14T12:01:51.320Z,90
2017-09-14T12:02:50.459Z,85
2017-09-14T12:03:51.303Z,85
2017-09-14T12:04:51.263Z,75
2017-09-14T12:05:51.284Z,90
2017-09-14T12:06:50.597Z,120
2017-09-14T12:07:50.602Z,165
2017-09-14T12:08:50.572Z,180
2017-09-14T12:09:50.889Z,265
2017-09-14T12:10:50.861Z,345
2017-09-14T12:11:51.162Z,195
2017-09-14T12:12:50.812Z,180
2017-09-14T12:13:50.812Z,195
2017-09-14T12:14:50.803Z,250
2017-09-14T12:15:51.084Z,210
2017-09-14T12:16:50.442Z,180
2017-09-14T12:17:50.448Z,225
2017-09-14T12:18:50.541Z,335
2017-09-14T12:19:50.397Z,245
2017-09-14T12:20:50.394Z,210
2017-09-14T12:21:50.374Z,205
2017-09-14T12:22:50.374Z,160
2017-09-14T12:23:50.665Z,135
2017-09-14T12:24:50.406Z,120
2017-09-14T12:25:50.612Z,115
2017-09-14T12:26:50.902Z,115
2017-09-14T12:27:50.279Z,125
2017-09-14T12:28:50.862Z,150
2017-09-14T12:29:50.874Z,185
2017-09-14T12:30:50.645Z,190
2017-09-14T12:31:50.512Z,170
2017-09-14T12:32:50.801Z,165
2017-09-14T12:33:50.500Z,155
2017-09-14T12:34:50.466Z,150
2017-09-14T12:35:50.757Z,120
2017-09-14T12:36:50.791Z,95
2017-09-14T12:37:50.446Z,85
2017-09-14T12:38:50.535Z,100
2017-09-14T12:39:50.702Z,110
2017-09-14T12:40:50.706Z,120
2017-09-14T12:41:50.064Z,145
2017-09-14T12:42:50.656Z,185
2017-09-14T12:43:50.623Z,255
2017-09-14T12:44:50.609Z,195
2017-09-14T12:45:50.051Z,215
2017-09-14T12:46:50.575Z,175
2017-09-14T12:47:50.576Z,160
2017-09-14T12:48:50.337Z,145
2017-09-14T12:49:50.570Z,155
2017-09-14T12:50:49.591Z,150
2017-09-14T12:51:49.892Z,155
2017-09-14T12:52:50.516Z,150
2017-09-14T12:53:50.499Z,150
2017-09-14T12:54:50.468Z,150
2017-09-14T12:55:50.438Z,150
2017-09-14T12:56:49.802Z,145
2017-09-14T12:57:50.423Z,135
2017-09-14T12:58:49.453Z,125
2017-09-14T12:59:50.423Z,105
2017-09-14T13:00:50.362Z,85
2017-09-14T13:01:50.069Z,65
2017-09-14T13:02:50.352Z,50
2017-09-14T13:03:50.313Z,40
2017-09-14T13:04:50.315Z,45
2017-09-14T13:05:49.662Z,60
2017-09-14T13:06:50.047Z,75
2017-09-14T13:07:50.315Z,100
2017-09-14T13:08:50.241Z,115
2017-09-14T13:09:49.577Z,115
2017-09-14T13:10:49.912Z,130
2017-09-14T13:11:50.191Z,140
2017-09-14T13:12:49.522Z,140
2017-09-14T13:13:49.837Z,140
2017-09-14T13:14:50.142Z,135
2017-09-14T13:15:49.935Z,125
2017-09-14T13:16:49.825Z,120
2017-09-14T13:17:50.072Z,145
2017-09-14T13:18:49.746Z,130
2017-09-14T13:19:49.412Z,140
2017-09-14T13:20:50.003Z,125
2017-09-14T13:21:50.077Z,110
2017-09-14T13:22:49.982Z,105
2017-09-14T13:23:49.982Z,90
2017-09-14T13:24:49.956Z,90
2017-09-14T13:25:49.957Z,85
2017-09-14T13:26:49.966Z,75
2017-09-14T13:27:49.284Z,75
2017-09-14T13:28:49.918Z,90
2017-09-14T13:29:49.966Z,85
2017-09-14T13:30:49.552Z,85
2017-09-14T13:31:49.857Z,80
2017-09-14T13:32:49.529Z,80
2017-09-14T13:33:49.184Z,85
2017-09-14T13:34:48.845Z,90
2017-09-14T13:35:50.056Z,80
2017-09-14T13:36:49.472Z,65
2017-09-14T13:37:49.839Z,50
2017-09-14T13:38:49.403Z,45
2017-09-14T13:39:49.408Z,40
2017-09-14T13:40:49.414Z,40
2017-09-14T13:41:49.345Z,30
2017-09-14T13:42:49.372Z,20
2017-09-14T13:43:49.734Z,15
2017-09-14T13:44:49.618Z,15
2017-09-14T13:45:49.614Z,15
2017-09-14T13:46:48.317Z,15
2017-09-14T13:47:49.574Z,15
2017-09-14T13:48:49.571Z,15
2017-09-14T13:49:48.959Z,15
2017-09-14T13:50:49.513Z,20
2017-09-14T13:51:48.562Z,25
2017-09-14T13:52:49.252Z,25
2017-09-14T13:53:49.152Z,25
2017-09-14T13:54:49.157Z,25
2017-09-14T13:55:49.420Z,25
2017-09-14T13:56:49.431Z,35
2017-09-14T13:57:49.090Z,35
2017-09-14T13:58:49.465Z,35
2017-09-14T13:59:49.370Z,30
2017-09-14T14:00:49.061Z,30
2017-09-14T14:01:49.363Z,30
2017-09-14T14:02:49.373Z,30
2017-09-14T14:03:48.371Z,35
2017-09-14T14:04:48.454Z,35
2017-09-14T14:05:49.352Z,30
2017-09-14T14:06:49.392Z,25
2017-09-14T14:07:49.222Z,25
2017-09-14T14:08:49.320Z,25
2017-09-14T14:09:48.969Z,35
2017-09-14T14:10:48.890Z,40
2017-09-14T14:11:48.856Z,40
2017-09-14T14:12:49.156Z,35
2017-09-14T14:13:49.153Z,35
2017-09-14T14:14:48.222Z,30
2017-09-14T14:15:48.431Z,30
2017-09-14T14:16:48.782Z,25
2017-09-14T14:17:49.313Z,25
2017-09-14T14:18:48.748Z,25